Time;durP1;ratioP1;P1;durP2;ratioP2;P2;SDS_P1;SDS_P2;PMS_P1;PMS_P2;Temp;Humidity;BMP_temperature;BMP_pressure;BME280_temperature;BME280_humidity;BME280_pressure;Samples;Min_cycle;Max_cycle;Signal;HPM_P1;HPM_P2
2021/11/04 00:04:52;;;;;;;32.33;19.90;;;;;;;8.55;68.85;98435.78;10389760;28;20053;-63
2021/11/04 00:09:54;;;;;;;38.05;19.70;;;;;;;8.61;68.83;98430.09;10390090;28;20085;-63
2021/11/04 00:14:56;;;;;;;25.40;17.00;;;;;;;8.63;68.49;98433.41;10389581;28;20057;-63
2021/11/04 00:19:58;;;;;;;22.52;16.08;;;;;;;8.53;68.20;98437.66;10389814;28;20136;-63
2021/11/04 00:24:59;;;;;;;23.02;16.38;;;;;;;8.41;68.56;98431.59;10388026;28;20490;-63
2021/11/04 00:30:01;;;;;;;21.38;14.20;;;;;;;8.36;68.51;98414.66;10386963;28;20049;-63
2021/11/04 00:35:04;;;;;;;21.83;14.32;;;;;;;8.38;68.42;98410.19;10389286;28;20057;-63
2021/11/04 00:40:07;;;;;;;23.40;15.15;;;;;;;8.32;68.50;98414.06;10388415;28;20049;-63
2021/11/04 00:45:10;;;;;;;22.20;14.27;;;;;;;8.23;68.66;98400.88;10388850;28;20057;-63
2021/11/04 00:50:13;;;;;;;24.38;15.45;;;;;;;8.05;68.46;98400.44;10387111;28;20053;-63
2021/11/04 00:55:14;;;;;;;30.55;17.52;;;;;;;7.93;68.85;98402.19;10386747;28;20053;-63
2021/11/04 01:00:17;;;;;;;29.65;19.10;;;;;;;8.00;68.62;98389.53;10388651;28;20050;-63
2021/11/04 01:05:19;;;;;;;39.47;19.75;;;;;;;8.07;68.52;98382.09;10388310;28;20063;-62
2021/11/04 01:10:20;;;;;;;36.90;20.63;;;;;;;8.03;68.65;98376.31;10387759;28;20059;-63
2021/11/04 01:15:22;;;;;;;35.28;20.48;;;;;;;8.12;68.42;98380.84;10387358;28;20050;-62
2021/11/04 01:20:24;;;;;;;41.15;21.70;;;;;;;8.12;68.38;98399.06;10388237;28;20045;-63
2021/11/04 01:25:26;;;;;;;51.92;24.23;;;;;;;8.21;68.54;98402.78;10387298;28;20155;-63
2021/11/04 01:30:28;;;;;;;47.80;23.15;;;;;;;8.18;68.38;98400.41;10386326;28;20049;-63
2021/11/04 01:35:33;;;;;;;43.88;23.60;;;;;;;8.03;68.51;98390.16;10386977;28;20520;-62
2021/11/04 01:40:36;;;;;;;49.13;24.10;;;;;;;8.01;68.75;98383.41;10386730;28;20056;-62
2021/11/04 01:45:37;;;;;;;53.58;25.33;;;;;;;8.04;68.65;98373.56;10387244;28;20063;-62
2021/11/04 01:50:39;;;;;;;51.38;25.17;;;;;;;8.11;68.69;98383.56;10387193;28;20484;-63
2021/11/04 01:55:41;;;;;;;48.38;24.42;;;;;;;8.14;68.43;98394.59;10384152;28;20506;-63
2021/11/04 02:00:43;;;;;;;53.10;26.83;;;;;;;8.18;68.44;98416.03;10385171;28;20543;-63
2021/11/04 02:05:50;;;;;;;61.47;27.13;;;;;;;8.18;68.67;98421.25;10384023;28;20092;-63
2021/11/04 02:10:59;;;;;;;55.92;25.80;;;;;;;8.12;68.64;98425.09;10385749;28;20050;-63
2021/11/04 02:16:03;;;;;;;47.60;24.65;;;;;;;8.12;68.50;98432.91;10384264;28;20045;-63
2021/11/04 02:21:19;;;;;;;48.47;23.92;;;;;;;8.03;68.78;98429.22;10384797;28;20045;-62
2021/11/04 02:26:22;;;;;;;42.10;21.73;;;;;;;7.93;68.60;98425.63;10384356;28;20053;-62
2021/11/04 02:31:24;;;;;;;42.88;22.05;;;;;;;7.90;69.16;98417.19;10385189;28;20390;-63
2021/11/04 02:36:27;;;;;;;39.78;20.23;;;;;;;7.88;68.82;98421.66;10384521;28;20049;-62
2021/11/04 02:41:31;;;;;;;36.15;19.35;;;;;;;7.90;68.95;98418.00;10385149;28;20662;-63
2021/11/04 02:46:33;;;;;;;39.33;20.23;;;;;;;7.89;68.89;98411.16;10385265;28;20240;-62
2021/11/04 02:51:38;;;;;;;30.05;17.55;;;;;;;7.93;68.66;98402.19;10384187;28;20050;-63
2021/11/04 02:56:51;;;;;;;31.33;17.55;;;;;;;7.89;68.70;98403.34;10384618;28;20059;-62
2021/11/04 03:01:56;;;;;;;26.67;15.45;;;;;;;8.00;68.51;98402.53;10386436;28;20049;-62
2021/11/04 03:06:58;;;;;;;35.75;18.42;;;;;;;7.75;68.71;98394.88;10391047;28;20061;-63
2021/11/04 03:12:00;;;;;;;39.28;19.48;;;;;;;7.72;69.22;98397.69;10392070;28;20060;-63
2021/11/04 03:17:03;;;;;;;25.52;15.13;;;;;;;7.79;68.92;98398.94;10391592;28;20064;-62
2021/11/04 03:22:06;;;;;;;24.75;14.90;;;;;;;7.75;69.32;98403.50;10389030;28;20052;-62
2021/11/04 03:27:09;;;;;;;22.42;14.38;;;;;;;7.82;68.88;98409.09;10391606;28;20505;-63
2021/11/04 03:32:16;;;;;;;22.92;14.88;;;;;;;7.90;68.64;98430.19;10391957;28;20474;-63
2021/11/04 03:37:20;;;;;;;29.38;16.55;;;;;;;7.94;68.59;98436.84;10390385;28;20494;-63
2021/11/04 03:42:23;;;;;;;20.60;13.85;;;;;;;7.88;68.58;98445.94;10391495;28;20468;-63
2021/11/04 03:47:29;;;;;;;16.35;12.02;;;;;;;7.80;68.50;98453.47;10391707;28;20494;-63
2021/11/04 03:52:32;;;;;;;29.38;16.10;;;;;;;7.93;68.59;98459.47;10391227;28;20738;-63
2021/11/04 03:57:35;;;;;;;35.72;16.10;;;;;;;7.85;68.73;98468.75;10390968;28;20449;-63
2021/11/04 04:02:36;;;;;;;22.80;13.10;;;;;;;7.78;68.93;98477.94;10388404;28;20044;-63
2021/11/04 04:07:38;;;;;;;26.58;13.63;;;;;;;7.86;68.75;98479.03;10386530;28;20056;-63
2021/11/04 04:12:40;;;;;;;26.17;13.70;;;;;;;7.83;68.76;98481.03;10384557;28;20045;-63
2021/11/04 04:17:42;;;;;;;19.88;12.10;;;;;;;7.81;68.59;98470.72;10384076;28;20060;-63
2021/11/04 04:22:44;;;;;;;16.58;10.95;;;;;;;7.81;68.32;98475.94;10388438;28;20565;-63
2021/11/04 04:27:46;;;;;;;19.88;12.70;;;;;;;7.73;68.51;98467.84;10391598;28;20060;-63
2021/11/04 04:32:47;;;;;;;17.90;12.35;;;;;;;7.71;68.47;98474.91;10391493;28;20521;-63
2021/11/04 04:37:49;;;;;;;19.67;12.85;;;;;;;7.77;68.15;98476.28;10391013;28;20055;-63
2021/11/04 04:42:51;;;;;;;22.42;14.18;;;;;;;7.77;68.11;98478.88;10388943;28;20076;-63
2021/11/04 04:47:52;;;;;;;22.98;15.02;;;;;;;7.83;67.87;98471.44;10390151;28;20405;-63
2021/11/04 04:52:54;;;;;;;23.35;15.38;;;;;;;7.79;67.81;98474.41;10390156;28;20380;-63
2021/11/04 04:57:56;;;;;;;26.83;17.33;;;;;;;7.61;68.22;98467.91;10390026;28;20141;-63
2021/11/04 05:02:58;;;;;;;26.35;16.75;;;;;;;7.65;68.48;98467.56;10389849;28;20056;-63
2021/11/04 05:08:00;;;;;;;32.92;20.15;;;;;;;7.56;68.46;98457.81;10389729;28;20050;-63
2021/11/04 05:13:01;;;;;;;40.63;24.40;;;;;;;7.51;68.42;98457.28;10389181;28;20131;-63
2021/11/04 05:18:07;;;;;;;38.75;24.05;;;;;;;7.46;68.46;98464.59;10388790;28;20103;-63
2021/11/04 05:23:09;;;;;;;31.23;20.30;;;;;;;7.47;68.31;98462.84;10389076;28;20055;-64
2021/11/04 05:28:11;;;;;;;34.30;21.58;;;;;;;7.47;68.27;98463.66;10389240;28;20042;-63
2021/11/04 05:33:12;;;;;;;39.22;22.60;;;;;;;7.39;68.45;98446.91;10387634;28;20057;-64
2021/11/04 05:38:14;;;;;;;41.28;25.25;;;;;;;7.46;68.32;98446.41;10388592;28;20053;-64
2021/11/04 05:43:16;;;;;;;37.55;22.30;;;;;;;7.37;68.23;98459.19;10386269;28;20057;-63
2021/11/04 05:48:17;;;;;;;46.05;26.45;;;;;;;7.40;68.48;98449.44;10387628;28;20682;-64
2021/11/04 05:53:19;;;;;;;45.45;27.10;;;;;;;7.51;68.17;98456.47;10387939;28;20045;-63
2021/11/04 05:58:21;;;;;;;37.80;24.58;;;;;;;7.46;67.99;98469.81;10388053;28;20049;-64
2021/11/04 06:03:23;;;;;;;40.53;24.92;;;;;;;7.50;68.14;98475.63;10387041;28;20049;-64
2021/11/04 06:08:24;;;;;;;39.28;23.88;;;;;;;7.46;67.77;98488.00;10387628;28;20049;-64
2021/11/04 06:13:26;;;;;;;49.08;27.33;;;;;;;7.57;67.55;98490.69;10387434;28;20049;-64
2021/11/04 06:18:28;;;;;;;46.67;27.02;;;;;;;7.56;67.55;98494.25;10386867;28;20051;-64
2021/11/04 06:23:30;;;;;;;50.28;27.70;;;;;;;7.56;67.18;98509.00;10386746;28;20057;-64
2021/11/04 06:28:31;;;;;;;48.97;27.48;;;;;;;7.56;67.34;98506.41;10385547;28;20136;-65
2021/11/04 06:33:33;;;;;;;44.90;26.17;;;;;;;7.51;67.29;98519.72;10384924;28;20452;-63
2021/11/04 06:38:35;;;;;;;45.45;27.10;;;;;;;7.59;67.12;98527.81;10386204;28;20417;-64
2021/11/04 06:43:37;;;;;;;45.53;27.08;;;;;;;7.41;67.06;98531.72;10386491;28;20083;-64
2021/11/04 06:48:43;;;;;;;42.83;26.15;;;;;;;7.36;66.97;98541.59;10385310;28;20049;-63
2021/11/04 06:53:53;;;;;;;44.85;26.52;;;;;;;7.36;67.49;98543.38;10386305;28;20544;-64
2021/11/04 06:58:56;;;;;;;46.58;26.50;;;;;;;7.36;67.37;98559.81;10386719;28;20297;-64
2021/11/04 07:04:06;;;;;;;38.30;23.70;;;;;;;7.31;67.46;98564.47;10385412;28;20060;-64
2021/11/04 07:09:07;;;;;;;44.88;25.63;;;;;;;7.28;67.69;98590.72;10385603;28;20441;-63
2021/11/04 07:14:09;;;;;;;40.17;24.35;;;;;;;7.34;67.51;98600.69;10384533;28;20041;-64
2021/11/04 07:19:11;;;;;;;39.72;23.65;;;;;;;7.33;67.46;98613.78;10385709;28;20055;-63
2021/11/04 07:24:18;;;;;;;44.95;25.70;;;;;;;7.38;67.55;98633.38;10383461;28;20652;-63
2021/11/04 07:29:26;;;;;;;43.83;24.73;;;;;;;7.40;67.73;98647.09;10385162;28;20051;-63
2021/11/04 07:34:29;;;;;;;42.58;24.10;;;;;;;7.39;67.56;98653.22;10384406;28;20058;-63
2021/11/04 07:39:31;;;;;;;47.75;26.02;;;;;;;7.38;67.75;98659.38;10385331;28;20148;-64
2021/11/04 07:44:33;;;;;;;44.03;23.83;;;;;;;7.37;67.69;98668.09;10385786;28;20059;-64
2021/11/04 07:49:36;;;;;;;45.88;24.98;;;;;;;7.33;68.03;98671.84;10385016;28;20060;-64
2021/11/04 07:54:38;;;;;;;39.83;22.83;;;;;;;7.27;67.91;98681.81;10384910;28;20049;-64
2021/11/04 07:59:39;;;;;;;46.38;24.25;;;;;;;7.26;68.06;98688.78;10391953;28;20570;-64
2021/11/04 08:04:41;;;;;;;46.53;25.17;;;;;;;7.35;67.73;98690.78;10391448;28;20502;-64
2021/11/04 08:09:43;;;;;;;50.00;25.60;;;;;;;7.43;67.54;98705.88;10392231;28;20052;-64
2021/11/04 08:14:44;;;;;;;44.30;23.30;;;;;;;7.34;67.28;98709.09;10391884;28;20136;-65
2021/11/04 08:19:46;;;;;;;46.17;25.83;;;;;;;7.37;67.51;98703.66;10391669;28;20053;-64
2021/11/04 08:24:50;;;;;;;45.50;23.17;;;;;;;7.46;67.54;98706.50;10391727;28;20061;-63
2021/11/04 08:29:52;;;;;;;41.38;21.55;;;;;;;7.53;67.10;98710.34;10391026;28;20059;-64
2021/11/04 08:34:54;;;;;;;43.92;23.65;;;;;;;7.60;66.99;98718.59;10389165;28;20397;-64
2021/11/04 08:39:56;;;;;;;43.72;23.05;;;;;;;7.61;66.74;98721.09;10391209;28;20060;-64
2021/11/04 08:44:59;;;;;;;46.28;23.83;;;;;;;7.47;66.49;98723.78;10388004;28;20409;-64
2021/11/04 08:50:04;;;;;;;45.45;22.88;;;;;;;7.49;66.54;98737.50;10386989;28;20046;-64
2021/11/04 08:55:08;;;;;;;44.53;23.88;;;;;;;7.63;66.20;98741.81;10382669;28;20413;-64
2021/11/04 09:00:11;;;;;;;43.45;23.90;;;;;;;7.75;65.61;98747.00;10382287;28;20056;-64
2021/11/04 09:05:13;;;;;;;41.95;22.35;;;;;;;7.75;65.64;98748.81;10386657;28;20058;-64
2021/11/04 09:10:18;;;;;;;43.67;23.13;;;;;;;7.73;65.71;98753.28;10387433;28;20873;-64
2021/11/04 09:15:20;;;;;;;39.42;22.45;;;;;;;7.72;65.47;98757.66;10389029;28;20103;-64
2021/11/04 09:20:22;;;;;;;43.60;23.55;;;;;;;7.61;65.24;98760.13;10388677;28;20085;-64
2021/11/04 09:25:24;;;;;;;41.33;22.75;;;;;;;7.50;65.26;98762.59;10388921;28;20057;-64
2021/11/04 09:30:26;;;;;;;41.33;21.95;;;;;;;7.61;65.11;98760.13;10388836;28;20045;-64
2021/11/04 09:35:28;;;;;;;38.40;20.92;;;;;;;7.72;64.66;98762.00;10388907;28;20321;-64
2021/11/04 09:40:29;;;;;;;36.92;20.08;;;;;;;7.84;64.41;98761.19;10388684;28;20187;-64
2021/11/04 09:45:31;;;;;;;37.80;20.15;;;;;;;8.14;63.93;98764.34;10387912;28;20494;-64
2021/11/04 09:50:33;;;;;;;38.47;20.83;;;;;;;8.21;63.55;98780.41;10387926;28;20065;-64
2021/11/04 09:55:35;;;;;;;39.30;20.17;;;;;;;8.43;63.19;98775.38;10387993;28;20132;-64
2021/11/04 10:00:39;;;;;;;41.75;21.63;;;;;;;8.43;63.02;98780.59;10385782;28;20049;-64
2021/11/04 10:05:52;;;;;;;39.55;21.42;;;;;;;8.40;61.17;98791.25;10387735;28;20054;-64
2021/11/04 10:11:06;;;;;;;45.33;24.85;;;;;;;8.47;62.40;98795.06;10387552;28;20416;-70
2021/11/04 10:16:09;;;;;;;47.65;24.45;;;;;;;8.62;62.70;98791.41;10386705;28;20394;-70
2021/11/04 10:21:12;;;;;;;45.30;23.27;;;;;;;8.79;62.54;98801.50;10386539;28;20053;-70
2021/11/04 10:26:34;;;;;;;43.30;23.02;;;;;;;8.76;62.10;98807.75;10385763;28;20417;-70
2021/11/04 10:31:41;;;;;;;42.72;22.65;;;;;;;8.77;62.04;98806.81;10386486;28;20053;-70
2021/11/04 10:36:44;;;;;;;40.78;22.17;;;;;;;8.80;61.69;98814.41;10385449;28;20056;-70
2021/11/04 10:41:46;;;;;;;38.42;21.23;;;;;;;8.71;61.24;98816.81;10386588;28;20371;-70
2021/11/04 10:46:54;;;;;;;35.35;20.33;;;;;;;8.92;60.25;98823.16;10384724;28;20068;-71
2021/11/04 10:51:58;;;;;;;32.88;18.92;;;;;;;9.19;60.45;98823.81;10386195;28;20132;-70
2021/11/04 10:57:00;;;;;;;34.40;18.40;;;;;;;9.19;59.74;98830.78;10384831;28;20055;-71
2021/11/04 11:02:05;;;;;;;29.58;17.05;;;;;;;9.29;59.39;98832.63;10383860;28;20091;-70
2021/11/04 11:07:07;;;;;;;27.25;16.58;;;;;;;9.31;59.34;98845.56;10385530;28;20493;-71
2021/11/04 11:12:09;;;;;;;29.23;17.65;;;;;;;9.37;59.06;98850.34;10385724;28;20046;-71
2021/11/04 11:17:10;;;;;;;30.05;18.23;;;;;;;9.52;58.72;98854.47;10385601;28;20325;-70
2021/11/04 11:22:17;;;;;;;30.10;17.92;;;;;;;9.46;58.95;98862.75;10386294;28;20413;-70
2021/11/04 11:27:24;;;;;;;29.73;18.70;;;;;;;9.48;59.03;98866.88;10385030;28;20079;-70
2021/11/04 11:32:31;;;;;;;28.60;18.35;;;;;;;9.55;58.52;98873.34;10389441;28;20053;-71
2021/11/04 11:37:33;;;;;;;27.05;18.02;;;;;;;9.64;58.35;98872.69;10392299;28;20055;-70
2021/11/04 11:43:02;;;;;;;28.30;18.02;;;;;;;9.71;57.66;98887.94;10393689;28;20046;-71
2021/11/04 11:48:25;;;;;;;25.67;16.83;;;;;;;9.74;58.07;98875.50;10392494;28;20057;-70
2021/11/04 11:53:31;;;;;;;31.33;18.73;;;;;;;9.95;58.10;98873.09;10393418;28;20056;-70
2021/11/04 11:58:43;;;;;;;26.58;15.75;;;;;;;9.89;58.21;98871.75;10393020;28;20053;-71
2021/11/04 12:03:50;;;;;;;26.23;16.70;;;;;;;9.76;58.23;98871.00;10391899;28;20553;-71
2021/11/04 12:08:59;;;;;;;23.27;15.68;;;;;;;9.66;58.07;98880.44;10391413;28;20053;-71
2021/11/04 12:14:19;;;;;;;26.27;16.35;;;;;;;9.73;58.36;98893.88;10391784;28;20380;-71
2021/11/04 12:19:33;;;;;;;22.88;14.55;;;;;;;9.57;58.24;98901.94;10391964;28;20045;-70
2021/11/04 12:24:35;;;;;;;21.92;14.27;;;;;;;9.74;58.50;98893.78;10391048;28;20076;-70
2021/11/04 12:29:37;;;;;;;22.50;14.05;;;;;;;9.64;58.50;98901.41;10391737;28;20669;-70
2021/11/04 12:34:39;;;;;;;21.67;13.82;;;;;;;9.67;58.86;98908.19;10391009;28;20465;-70
2021/11/04 12:39:50;;;;;;;23.80;14.85;;;;;;;9.85;58.21;98904.25;10390038;28;20061;-70
2021/11/04 12:44:52;;;;;;;21.70;13.68;;;;;;;10.08;57.60;98908.63;10390657;28;20729;-71
2021/11/04 12:49:54;;;;;;;21.27;13.23;;;;;;;10.04;57.36;98911.56;10390934;28;20053;-71
2021/11/04 12:54:56;;;;;;;19.98;12.82;;;;;;;10.04;57.40;98911.56;10390132;28;20414;-71
2021/11/04 13:00:02;;;;;;;21.23;12.32;;;;;;;9.90;57.28;98922.19;10390631;28;20369;-71
2021/11/04 13:05:11;;;;;;;20.85;12.55;;;;;;;9.77;57.23;98924.84;10389371;28;20055;-71
2021/11/04 13:10:19;;;;;;;20.38;13.10;;;;;;;9.65;57.84;98931.78;10389246;28;20938;-70
2021/11/04 13:15:25;;;;;;;22.92;13.48;;;;;;;9.64;57.78;98937.97;10389219;28;20501;-71
2021/11/04 13:20:32;;;;;;;21.73;13.07;;;;;;;9.80;58.07;98936.88;10389603;28;20605;-71
2021/11/04 13:25:39;;;;;;;23.30;13.35;;;;;;;9.78;58.06;98936.16;10388754;28;20049;-71
2021/11/04 13:30:53;;;;;;;19.40;12.30;;;;;;;9.59;58.12;98944.44;10388705;28;20053;-71
2021/11/04 13:36:18;;;;;;;21.20;12.88;;;;;;;9.53;58.85;98952.69;10389322;28;20056;-70
2021/11/04 13:41:33;;;;;;;19.13;11.77;;;;;;;9.25;59.39;98963.41;10388870;28;20060;-71
2021/11/04 13:46:44;;;;;;;13.82;8.52;;;;;;;9.20;59.13;98970.72;10388872;28;20148;-70
2021/11/04 13:51:53;;;;;;;14.23;8.45;;;;;;;9.35;58.22;98972.25;10388226;28;20057;-71
2021/11/04 13:57:04;;;;;;;13.95;7.18;;;;;;;9.43;57.89;98981.22;10387377;28;20136;-71
2021/11/04 14:02:18;;;;;;;11.38;7.07;;;;;;;9.53;58.31;98982.25;10387469;28;20599;-71
2021/11/04 14:07:29;;;;;;;11.50;7.78;;;;;;;9.81;57.88;98988.16;10387378;28;20061;-70
2021/11/04 14:12:34;;;;;;;15.82;9.15;;;;;;;9.81;58.03;99003.84;10385720;28;20059;-70
2021/11/04 14:17:48;;;;;;;12.75;8.13;;;;;;;9.52;58.53;99014.50;10589130;27;20628;-70
2021/11/04 14:22:51;;;;;;;16.23;8.68;;;;;;;9.56;58.69;99015.13;10588267;27;20166;-70
2021/11/04 14:28:01;;;;;;;13.77;8.10;;;;;;;9.42;58.85;99023.91;10581553;27;20047;-70
2021/11/04 14:33:04;;;;;;;14.90;8.63;;;;;;;9.33;59.17;99029.78;10546387;28;20043;-70
2021/11/04 14:38:07;;;;;;;17.10;8.80;;;;;;;9.34;59.52;99031.44;10544434;28;20062;-70
2021/11/04 14:43:10;;;;;;;13.07;7.72;;;;;;;9.20;59.69;99044.59;10544660;28;20109;-69
2021/11/04 14:48:11;;;;;;;13.55;7.70;;;;;;;8.97;60.05;99050.53;10545695;28;20047;-71
2021/11/04 14:53:13;;;;;;;12.82;6.85;;;;;;;9.03;60.85;99046.69;10544947;28;20054;-70
2021/11/04 14:58:15;;;;;;;12.93;7.07;;;;;;;8.93;61.72;99049.09;10560955;28;20043;-70
2021/11/04 15:03:16;;;;;;;21.67;11.75;;;;;;;8.84;62.53;99049.69;10580923;28;20574;-69
2021/11/04 15:08:18;;;;;;;10.32;5.82;;;;;;;8.77;62.27;99056.25;10582351;28;20051;-69
2021/11/04 15:13:21;;;;;;;10.32;6.57;;;;;;;8.67;62.59;99049.94;10582550;28;20048;-69
2021/11/04 15:18:31;;;;;;;13.32;7.97;;;;;;;8.52;63.37;99061.41;10548800;27;20052;-70
2021/11/04 15:23:33;;;;;;;10.82;6.90;;;;;;;8.45;63.83;99073.13;10544831;28;20576;-70
2021/11/04 15:28:38;;;;;;;11.40;6.60;;;;;;;8.29;63.72;99080.25;10517744;28;20048;-70
2021/11/04 15:33:39;;;;;;;10.50;5.90;;;;;;;8.07;64.32;99085.13;10516972;28;20087;-70
2021/11/04 15:38:42;;;;;;;11.27;6.57;;;;;;;7.98;64.45;99089.97;10524918;28;20047;-69
2021/11/04 15:43:44;;;;;;;10.30;5.63;;;;;;;7.98;64.76;99102.16;10537260;28;20073;-70
2021/11/04 15:48:46;;;;;;;15.95;7.80;;;;;;;8.08;64.33;99098.06;10515571;28;20131;-70
2021/11/04 15:53:48;;;;;;;12.32;6.93;;;;;;;8.17;64.57;99113.16;10546501;28;20051;-70
2021/11/04 15:58:50;;;;;;;10.55;6.53;;;;;;;8.27;64.65;99113.38;10523484;28;20059;-70
2021/11/04 16:03:53;;;;;;;13.25;7.47;;;;;;;8.29;64.44;99121.94;10521186;28;20428;-70
2021/11/04 16:08:55;;;;;;;15.38;9.55;;;;;;;8.29;64.56;99142.78;10513517;28;20047;-70
2021/11/04 16:13:57;;;;;;;19.35;9.32;;;;;;;8.16;65.10;99140.09;10511563;28;20420;-70
2021/11/04 16:18:59;;;;;;;15.15;8.25;;;;;;;7.95;66.09;99149.22;10535257;28;20043;-70
2021/11/04 16:24:04;;;;;;;18.73;9.48;;;;;;;8.13;65.92;99157.69;10549791;28;20084;-70
2021/11/04 16:29:07;;;;;;;17.02;7.68;;;;;;;8.19;65.87;99163.38;10527231;28;20682;-69
2021/11/04 16:34:09;;;;;;;16.30;8.48;;;;;;;8.01;66.14;99180.94;10534989;28;20052;-70
2021/11/04 16:39:11;;;;;;;21.30;11.52;;;;;;;7.72;67.00;99192.25;10511487;28;20121;-69
2021/11/04 16:44:13;;;;;;;16.45;10.00;;;;;;;7.86;67.24;99191.44;10544796;28;20491;-69
2021/11/04 16:49:14;;;;;;;23.83;11.93;;;;;;;7.97;66.96;99195.09;10552003;28;20055;-69
2021/11/04 16:54:18;;;;;;;16.83;10.55;;;;;;;7.97;66.88;99199.44;10524955;28;20051;-69
2021/11/04 16:59:20;;;;;;;23.27;12.88;;;;;;;7.91;66.68;99215.44;10515698;28;20051;-69
2021/11/04 17:04:25;;;;;;;18.33;10.75;;;;;;;7.86;67.28;99233.94;10545098;28;20159;-69
2021/11/04 17:09:27;;;;;;;16.95;10.45;;;;;;;7.93;67.45;99234.41;10530188;28;20523;-69
2021/11/04 17:14:29;;;;;;;22.35;12.93;;;;;;;7.87;67.64;99216.56;10511925;28;20910;-69
2021/11/04 17:19:31;;;;;;;27.20;14.05;;;;;;;7.95;67.55;99222.13;10515059;28;20445;-70
2021/11/04 17:24:33;;;;;;;19.58;11.55;;;;;;;7.90;67.72;99235.41;10530397;28;20562;-70
2021/11/04 17:29:35;;;;;;;16.38;9.30;;;;;;;7.92;67.74;99241.38;10514056;28;20048;-69
2021/11/04 17:34:38;;;;;;;10.98;7.35;;;;;;;7.89;67.69;99246.78;10511983;28;20058;-70
2021/11/04 17:39:39;;;;;;;11.63;6.78;;;;;;;7.91;67.56;99252.72;10538944;28;20054;-69
2021/11/04 17:44:42;;;;;;;11.88;7.85;;;;;;;7.97;67.62;99265.38;10549189;28;20161;-69
2021/11/04 17:49:45;;;;;;;12.02;8.27;;;;;;;7.96;67.57;99278.47;10533778;28;20051;-69
2021/11/04 17:54:52;;;;;;;7.57;5.18;;;;;;;7.83;67.45;99287.94;10524717;28;20062;-70
2021/11/04 17:59:54;;;;;;;9.43;5.50;;;;;;;7.75;67.80;99292.75;10538297;28;20047;-64
2021/11/04 18:04:56;;;;;;;7.95;5.40;;;;;;;7.71;67.36;99299.88;10521110;28;20134;-62
2021/11/04 18:09:58;;;;;;;9.88;7.82;;;;;;;7.68;67.55;99313.09;10547290;28;20059;-63
2021/11/04 18:15:02;;;;;;;10.65;6.70;;;;;;;7.61;67.54;99311.75;10532038;28;20136;-62
2021/11/04 18:20:04;;;;;;;11.55;6.55;;;;;;;7.58;67.82;99314.56;10520144;28;20112;-62
2021/11/04 18:25:07;;;;;;;8.32;5.65;;;;;;;7.52;67.72;99321.88;10523714;28;20070;-62
2021/11/04 18:30:10;;;;;;;8.88;6.13;;;;;;;7.48;67.77;99321.22;10529931;28;20048;-62
2021/11/04 18:35:11;;;;;;;9.07;5.80;;;;;;;7.43;67.80;99325.81;10517543;28;20450;-62
2021/11/04 18:40:13;;;;;;;11.30;6.72;;;;;;;7.36;68.30;99331.47;10507876;28;20054;-62
2021/11/04 18:45:15;;;;;;;9.57;7.03;;;;;;;7.38;68.41;99332.22;10507483;28;20050;-62
2021/11/04 18:50:18;;;;;;;10.07;7.05;;;;;;;7.35;68.41;99335.81;10547314;28;20055;-62
2021/11/04 18:55:21;;;;;;;12.07;7.65;;;;;;;7.32;68.48;99336.00;10547126;28;20142;-62
2021/11/04 19:00:24;;;;;;;15.38;8.38;;;;;;;7.31;68.88;99343.88;10509589;28;20523;-61
2021/11/04 19:05:27;;;;;;;16.13;9.35;;;;;;;7.27;69.18;99340.59;10523711;28;20492;-62
2021/11/04 19:10:28;;;;;;;15.75;9.93;;;;;;;7.22;69.39;99357.41;10523644;28;20302;-62
2021/11/04 19:15:30;;;;;;;17.73;10.77;;;;;;;7.28;69.39;99349.25;10546396;28;20106;-63
2021/11/04 19:20:33;;;;;;;98.38;63.95;;;;;;;7.28;69.67;99359.66;10515353;28;20517;-62
2021/11/04 19:25:35;;;;;;;17.23;12.45;;;;;;;7.30;69.47;99363.88;10554993;28;20496;-63
2021/11/04 19:30:37;;;;;;;24.23;16.20;;;;;;;7.39;69.53;99378.94;10538688;28;20056;-62
2021/11/04 19:35:43;;;;;;;19.00;13.02;;;;;;;7.33;69.49;99378.44;10538201;28;20047;-63
2021/11/04 19:40:45;;;;;;;12.98;9.30;;;;;;;7.27;69.57;99381.38;10530739;28;20050;-62
2021/11/04 19:45:46;;;;;;;14.23;9.20;;;;;;;7.21;69.83;99385.16;10524908;28;20071;-62
2021/11/04 19:50:48;;;;;;;11.30;8.07;;;;;;;7.20;69.79;99393.91;10554009;28;20048;-62
2021/11/04 19:55:50;;;;;;;12.18;8.80;;;;;;;7.20;69.88;99399.09;10554827;28;20976;-63
2021/11/04 20:00:52;;;;;;;10.10;7.80;;;;;;;7.25;70.07;99404.03;10542051;28;20046;-63
2021/11/04 20:05:54;;;;;;;9.82;7.93;;;;;;;7.32;69.90;99406.22;10528103;28;20170;-62
2021/11/04 20:10:56;;;;;;;11.27;8.13;;;;;;;7.30;69.76;99421.09;10522724;28;20056;-62
2021/11/04 20:15:57;;;;;;;18.85;13.90;;;;;;;7.32;69.81;99429.66;10548777;28;20076;-63
2021/11/04 20:20:59;;;;;;;11.63;8.35;;;;;;;7.24;69.92;99425.78;10529615;27;20852;-63
2021/11/04 20:26:02;;;;;;;8.60;7.00;;;;;;;7.23;69.88;99437.09;10526129;28;20048;-63
2021/11/04 20:31:04;;;;;;;10.65;7.00;;;;;;;7.27;69.89;99444.66;10529181;28;20050;-63
2021/11/04 20:36:07;;;;;;;7.78;5.65;;;;;;;7.36;69.52;99457.16;10550361;28;20089;-63
2021/11/04 20:41:11;;;;;;;9.25;6.50;;;;;;;7.36;69.63;99457.16;10529697;28;20095;-63
2021/11/04 20:46:13;;;;;;;8.80;6.35;;;;;;;7.34;69.70;99463.38;10548508;28;20845;-63
2021/11/04 20:51:15;;;;;;;8.00;5.40;;;;;;;7.27;69.99;99469.81;10518241;28;20052;-63
2021/11/04 20:56:17;;;;;;;8.63;6.28;;;;;;;7.15;70.18;99468.72;10534287;28;20130;-63
2021/11/04 21:01:18;;;;;;;9.52;6.10;;;;;;;7.24;70.08;99483.84;10534957;28;20044;-63
2021/11/04 21:06:20;;;;;;;8.82;6.45;;;;;;;7.24;70.04;99486.44;10522553;28;20087;-63
2021/11/04 21:11:24;;;;;;;8.52;5.97;;;;;;;7.29;69.85;99497.41;10550378;28;20938;-63
2021/11/04 21:16:26;;;;;;;9.55;6.57;;;;;;;7.30;69.71;99499.13;10543109;27;20483;-63
2021/11/04 21:21:28;;;;;;;8.45;6.18;;;;;;;7.24;69.76;99507.25;10530746;28;20101;-63
2021/11/04 21:26:32;;;;;;;8.95;6.32;;;;;;;7.25;69.87;99510.66;10515355;28;20159;-64
2021/11/04 21:31:34;;;;;;;8.40;6.30;;;;;;;7.13;69.88;99513.00;10529696;28;20083;-64
2021/11/04 21:36:35;;;;;;;8.52;6.25;;;;;;;7.10;69.93;99517.53;10514923;27;20054;-63
2021/11/04 21:41:38;;;;;;;9.65;7.38;;;;;;;7.16;69.84;99518.03;10534093;28;20560;-64
2021/11/04 21:46:39;;;;;;;8.57;7.53;;;;;;;7.07;70.07;99518.53;10517764;28;20442;-63
2021/11/04 21:51:41;;;;;;;11.32;8.52;;;;;;;6.94;70.04;99530.47;10529083;28;20513;-64
2021/11/04 21:56:43;;;;;;;11.68;8.57;;;;;;;6.90;70.10;99538.50;10532606;28;20585;-63
2021/11/04 22:01:45;;;;;;;12.57;9.63;;;;;;;6.89;70.12;99545.47;10547974;28;20691;-62
2021/11/04 22:06:48;;;;;;;16.63;10.65;;;;;;;6.89;69.78;99544.63;10514796;28;20507;-63
2021/11/04 22:11:49;;;;;;;28.70;13.75;;;;;;;6.96;69.63;99556.38;10535113;28;20052;-63
2021/11/04 22:16:52;;;;;;;22.05;13.35;;;;;;;7.14;69.54;99560.66;10515277;28;20062;-63
2021/11/04 22:21:53;;;;;;;14.90;9.63;;;;;;;7.27;69.32;99568.66;10530165;28;20139;-63
2021/11/04 22:26:56;;;;;;;14.13;10.10;;;;;;;7.46;68.71;99571.97;10509364;28;20493;-64
2021/11/04 22:32:00;;;;;;;11.95;9.73;;;;;;;7.41;68.89;99581.78;10523842;28;20048;-63
2021/11/04 22:37:03;;;;;;;12.25;9.77;;;;;;;7.42;68.96;99586.91;10528060;28;20305;-63
2021/11/04 22:42:05;;;;;;;15.45;10.85;;;;;;;7.40;68.93;99598.31;10523970;28;20052;-63
2021/11/04 22:47:07;;;;;;;11.57;8.52;;;;;;;7.22;69.01;99597.50;10516723;28;20045;-63
2021/11/04 22:52:09;;;;;;;14.68;10.88;;;;;;;7.15;69.09;99602.19;10516782;28;20062;-63
2021/11/04 22:57:11;;;;;;;19.20;12.52;;;;;;;7.00;69.04;99615.09;10537976;28;20059;-62
2021/11/04 23:02:16;;;;;;;21.40;12.63;;;;;;;6.87;69.19;99611.44;10524503;28;20044;-63
2021/11/04 23:07:18;;;;;;;25.45;14.65;;;;;;;6.79;69.16;99621.38;10521052;28;20388;-63
2021/11/04 23:12:20;;;;;;;414.60;29.80;;;;;;;6.74;69.07;99633.75;10533306;28;20069;-63
2021/11/04 23:17:21;;;;;;;54.22;18.08;;;;;;;6.67;69.55;99629.78;10520050;27;20816;-63
2021/11/04 23:22:23;;;;;;;20.95;12.68;;;;;;;6.72;69.23;99640.78;10519514;28;20048;-63